Time;durP1;ratioP1;P1;durP2;ratioP2;P2;SDS_P1;SDS_P2;PMS_P1;PMS_P2;Temp;Humidity;BMP_temperature;BMP_pressure;BME280_temperature;BME280_humidity;BME280_pressure;Samples;Min_cycle;Max_cycle;Signal;HPM_P1;HPM_P2
2024/01/17 00:00:06;;;;;;;;;;;;;;;-6.18;82.11;99285.78;4980010;28;19932;-79
2024/01/17 00:02:33;;;;;;;;;;;;;;;-6.29;82.20;99283.72;4973801;28;19930;-79
2024/01/17 00:05:00;;;;;;;;;;;;;;;-6.25;82.02;99278.75;4969713;28;19930;-79
2024/01/17 00:07:27;;;;;;;;;;;;;;;-6.40;82.07;99279.97;4970445;28;19926;-78
2024/01/17 00:09:53;;;;;;;;;;;;;;;-6.28;81.93;99266.72;4969747;28;19926;-79
2024/01/17 00:12:20;;;;;;;;;;;;;;;-6.33;81.99;99258.03;4969218;28;20013;-79
2024/01/17 00:14:47;;;;;;;;;;;;;;;-6.26;82.06;99241.25;4951727;28;19927;-79
2024/01/17 00:17:14;;;;;;;;;;;;;;;-6.36;82.10;99250.28;4956215;28;19933;-78
2024/01/17 00:19:41;;;;;;;;;;;;;;;-6.51;82.29;99253.19;4970542;28;19930;-79
2024/01/17 00:22:07;;;;;;;;;;;;;;;-6.54;83.04;99258.19;4970592;28;19926;-79
2024/01/17 00:24:34;;;;;;;;;;;;;;;-6.70;83.03;99257.66;4956709;28;19937;-79
2024/01/17 00:27:03;;;;;;;;;;;;;;;-6.55;83.18;99253.91;4963476;28;19949;-79
2024/01/17 00:29:30;;;;;;;;;;;;;;;-6.52;83.51;99267.63;4973697;28;19926;-79
2024/01/17 00:31:57;;;;;;;;;;;;;;;-6.53;83.20;99254.81;4972249;28;19934;-79
2024/01/17 00:34:24;;;;;;;;;;;;;;;-6.47;83.12;99220.16;4970763;28;19934;-80
2024/01/17 00:36:51;;;;;;;;;;;;;;;-6.30;82.99;99212.16;4968843;28;19930;-80
2024/01/17 00:39:18;;;;;;;;;;;;;;;-6.30;83.16;99225.81;4971887;28;19933;-79
2024/01/17 00:41:45;;;;;;;;;;;;;;;-6.42;82.90;99220.28;4967499;28;19934;-80
2024/01/17 00:44:18;;;;;;;;;;;;;;;-6.48;83.04;99227.75;4968856;28;19930;-80
2024/01/17 00:46:44;;;;;;;;;;;;;;;-6.25;82.58;99225.13;4973216;28;19926;-79
2024/01/17 00:49:11;;;;;;;;;;;;;;;-6.43;82.72;99220.25;4971830;28;19934;-79
2024/01/17 00:51:38;;;;;;;;;;;;;;;-6.50;82.85;99237.06;4974471;28;19957;-79
2024/01/17 00:54:05;;;;;;;;;;;;;;;-6.49;82.87;99231.13;4969898;28;19926;-79
2024/01/17 00:56:35;;;;;;;;;;;;;;;-6.45;82.73;99222.75;4970379;28;19938;-80
2024/01/17 00:59:03;;;;;;;;;;;;;;;-6.37;82.50;99220.44;4967995;28;20114;-80
2024/01/17 01:01:29;;;;;;;;;;;;;;;-6.41;82.69;99209.28;4949019;28;19926;-80
2024/01/17 01:03:56;;;;;;;;;;;;;;;-6.44;82.83;99214.28;4974490;28;19929;-79
2024/01/17 01:06:23;;;;;;;;;;;;;;;-6.32;82.78;99209.56;4971141;28;20068;-77
2024/01/17 01:08:49;;;;;;;;;;;;;;;-6.36;83.08;99197.50;4951193;28;19933;-78
2024/01/17 01:11:16;;;;;;;;;;;;;;;-6.26;82.64;99197.84;4956961;28;20013;-80
2024/01/17 01:13:42;;;;;;;;;;;;;;;-6.25;82.54;99195.31;4970134;28;19926;-80
2024/01/17 01:16:10;;;;;;;;;;;;;;;-6.23;82.66;99195.38;4968101;28;19997;-81
2024/01/17 01:18:37;;;;;;;;;;;;;;;-6.07;82.22;99189.91;4969439;28;19926;-81
2024/01/17 01:21:04;;;;;;;;;;;;;;;-6.24;82.75;99191.06;4941493;28;19926;-83
2024/01/17 01:23:30;;;;;;;;;;;;;;;-6.00;82.47;99180.78;4972503;28;19945;-81
2024/01/17 01:25:57;;;;;;;;;;;;;;;-6.00;82.54;99180.78;4956857;28;19926;-81
2024/01/17 01:28:24;;;;;;;;;;;;;;;-6.13;82.99;99175.25;4959297;28;19993;-82
2024/01/17 01:30:50;;;;;;;;;;;;;;;-6.07;82.61;99178.84;4973997;28;20016;-82
2024/01/17 01:33:17;;;;;;;;;;;;;;;-5.89;82.43;99175.94;4975910;28;20012;-81
2024/01/17 01:35:44;;;;;;;;;;;;;;;-5.83;82.00;99168.50;4972562;28;19933;-81
2024/01/17 01:38:10;;;;;;;;;;;;;;;-5.94;81.97;99171.59;4973844;28;19965;-81
2024/01/17 01:40:38;;;;;;;;;;;;;;;-5.91;82.50;99164.81;4972851;28;19941;-82
2024/01/17 01:43:37;;;;;;;;;;;;;;;-5.93;82.26;99162.22;4973149;28;19926;-82
2024/01/17 01:46:03;;;;;;;;;;;;;;;-5.94;82.11;99156.25;4921214;28;19933;-81
2024/01/17 01:48:30;;;;;;;;;;;;;;;-5.92;82.28;99158.84;4973926;28;19936;-84
2024/01/17 01:50:57;;;;;;;;;;;;;;;-5.90;82.13;99152.09;4953702;28;19978;-83
2024/01/17 01:53:28;;;;;;;;;;;;;;;-5.98;82.53;99144.25;4956268;28;19926;-81
2024/01/17 01:55:54;;;;;;;;;;;;;;;-6.05;82.49;99142.31;4955324;28;20017;-81
2024/01/17 01:58:24;;;;;;;;;;;;;;;-6.03;82.45;99139.81;4952424;28;20028;-82
2024/01/17 02:00:52;;;;;;;;;;;;;;;-6.07;82.73;99136.28;4968958;28;20409;-83
2024/01/17 02:03:18;;;;;;;;;;;;;;;-6.02;82.78;99136.44;4987391;28;19925;-82
2024/01/17 02:05:45;;;;;;;;;;;;;;;-6.01;83.14;99141.59;4973268;28;19930;-81
2024/01/17 02:08:12;;;;;;;;;;;;;;;-5.99;83.07;99136.53;4960510;28;19936;-81
2024/01/17 02:10:38;;;;;;;;;;;;;;;-5.97;83.07;99132.31;4943648;28;19929;-81
2024/01/17 02:13:05;;;;;;;;;;;;;;;-5.95;83.11;99130.66;4954146;28;19932;-82
2024/01/17 02:15:32;;;;;;;;;;;;;;;-5.89;82.84;99127.41;4954839;28;19930;-82
2024/01/17 02:17:59;;;;;;;;;;;;;;;-5.89;82.71;99118.06;4953189;28;19926;-82
2024/01/17 02:20:25;;;;;;;;;;;;;;;-5.92;83.15;99115.41;4966098;28;19926;-86
2024/01/17 02:22:52;;;;;;;;;;;;;;;-5.94;83.08;99106.81;4959637;28;19930;-81
2024/01/17 02:25:19;;;;;;;;;;;;;;;-5.92;83.16;99110.31;4950577;28;19926;-81
2024/01/17 02:27:45;;;;;;;;;;;;;;;-5.90;83.50;99093.31;4963414;28;19941;-81
2024/01/17 02:30:14;;;;;;;;;;;;;;;-5.86;83.21;99091.75;4961854;28;19929;-81
2024/01/17 02:32:44;;;;;;;;;;;;;;;-5.88;83.33;99078.91;4953721;28;19926;-82
2024/01/17 02:35:11;;;;;;;;;;;;;;;-5.84;83.19;99082.41;4955617;28;19926;-82
2024/01/17 02:37:38;;;;;;;;;;;;;;;-5.81;82.86;99079.94;4971361;28;20013;-83
2024/01/17 02:40:05;;;;;;;;;;;;;;;-5.81;83.22;99077.38;4969221;28;19932;-81
2024/01/17 02:42:31;;;;;;;;;;;;;;;-5.80;83.17;99067.22;4983004;28;19945;-81
2024/01/17 02:44:58;;;;;;;;;;;;;;;-5.77;82.88;99069.84;4968377;28;19933;-84
2024/01/17 02:47:25;;;;;;;;;;;;;;;-5.73;83.14;99052.06;4971526;28;19962;-82
2024/01/17 02:49:53;;;;;;;;;;;;;;;-5.71;82.82;99045.31;4968960;28;19926;-84
2024/01/17 02:52:20;;;;;;;;;;;;;;;-5.62;82.79;99041.31;4970900;28;19933;-82
2024/01/17 02:54:46;;;;;;;;;;;;;;;-5.73;82.76;99029.94;4967929;28;19930;-82
2024/01/17 02:57:13;;;;;;;;;;;;;;;-5.71;82.59;99025.72;4954768;28;19934;-83
2024/01/17 02:59:41;;;;;;;;;;;;;;;-5.74;82.83;99025.63;4966240;28;19933;-81
2024/01/17 03:02:09;;;;;;;;;;;;;;;-5.68;82.58;99030.91;4968398;28;20428;-84
2024/01/17 03:04:35;;;;;;;;;;;;;;;-5.67;82.55;99027.53;4971857;28;20003;-82
2024/01/17 03:07:02;;;;;;;;;;;;;;;-5.71;82.87;99025.72;4969213;28;19984;-82
2024/01/17 03:09:29;;;;;;;;;;;;;;;-5.70;82.88;99024.91;4972672;28;20024;-84
2024/01/17 03:11:56;;;;;;;;;;;;;;;-5.69;82.64;99018.97;4970303;28;19953;-81
2024/01/17 03:14:23;;;;;;;;;;;;;;;-5.73;82.61;99017.16;4970302;28;19985;-81
2024/01/17 03:16:49;;;;;;;;;;;;;;;-5.67;82.31;99014.75;4967885;28;19934;-85
2024/01/17 03:19:16;;;;;;;;;;;;;;;-5.63;82.21;99008.91;4975212;28;19941;-81
2024/01/17 03:21:43;;;;;;;;;;;;;;;-5.72;82.47;99006.09;4965816;28;19927;-81
2024/01/17 03:24:10;;;;;;;;;;;;;;;-5.82;82.85;99006.66;4979889;28;19933;-81
2024/01/17 03:26:37;;;;;;;;;;;;;;;-5.80;83.00;99005.03;4973074;28;19933;-84
2024/01/17 03:29:03;;;;;;;;;;;;;;;-5.84;83.33;98995.53;4974333;28;20025;-81
2024/01/17 03:31:30;;;;;;;;;;;;;;;-5.83;83.16;98992.16;4969852;28;19945;-81
2024/01/17 03:33:56;;;;;;;;;;;;;;;-5.85;83.28;98987.03;4971226;28;19933;-81
2024/01/17 03:36:23;;;;;;;;;;;;;;;-5.88;83.27;98975.84;4976313;28;19930;-83
2024/01/17 03:38:50;;;;;;;;;;;;;;;-5.89;83.56;98977.53;4967050;28;19933;-82
2024/01/17 03:41:17;;;;;;;;;;;;;;;-5.88;83.66;98970.72;4952715;28;19927;-81
2024/01/17 03:43:44;;;;;;;;;;;;;;;-5.85;83.74;98970.81;4956284;28;19941;-81
2024/01/17 03:46:10;;;;;;;;;;;;;;;-5.90;83.79;98974.94;4977837;28;20020;-81
2024/01/17 03:48:37;;;;;;;;;;;;;;;-5.86;83.94;98969.94;4977671;28;19925;-81
2024/01/17 03:51:04;;;;;;;;;;;;;;;-5.85;83.78;98963.13;4938342;28;19954;-83
2024/01/17 03:53:31;;;;;;;;;;;;;;;-5.78;83.71;98954.81;4950841;28;19933;-82
2024/01/17 03:55:57;;;;;;;;;;;;;;;-5.76;83.64;98951.47;4974439;28;20025;-81
2024/01/17 03:58:24;;;;;;;;;;;;;;;-5.74;83.57;98938.72;4971342;28;19981;-81
2024/01/17 04:00:51;;;;;;;;;;;;;;;-5.68;83.46;98935.47;4951769;28;19926;-83
2024/01/17 04:03:18;;;;;;;;;;;;;;;-5.69;83.69;98915.84;4972967;28;19926;-84
2024/01/17 04:05:44;;;;;;;;;;;;;;;-5.66;83.66;98914.25;4963404;28;19933;-82
2024/01/17 04:08:11;;;;;;;;;;;;;;;-5.64;83.48;98899.81;4973321;28;19925;-83
2024/01/17 04:10:38;;;;;;;;;;;;;;;-5.68;83.68;98898.00;4955039;28;19941;-82
2024/01/17 04:13:04;;;;;;;;;;;;;;;-5.62;83.81;98893.06;4974991;28;20398;-83
2024/01/17 04:15:31;;;;;;;;;;;;;;;-5.57;83.59;98884.63;4974694;28;19933;-82
2024/01/17 04:17:57;;;;;;;;;;;;;;;-5.50;83.83;98871.19;4962753;28;19937;-82
2024/01/17 04:20:24;;;;;;;;;;;;;;;-5.45;83.95;98879.81;4981765;28;19930;-84
2024/01/17 04:22:51;;;;;;;;;;;;;;;-5.40;84.06;98873.13;4952594;28;20382;-83
2024/01/17 04:25:17;;;;;;;;;;;;;;;-5.37;83.58;98868.09;4972348;28;19930;-83
2024/01/17 04:27:44;;;;;;;;;;;;;;;-5.37;83.37;98872.31;4952720;28;19933;-82
2024/01/17 04:30:11;;;;;;;;;;;;;;;-5.34;83.52;98868.16;4976223;28;19941;-83
2024/01/17 04:32:38;;;;;;;;;;;;;;;-5.33;83.22;98863.88;4971057;28;19934;-82
2024/01/17 04:35:05;;;;;;;;;;;;;;;-5.29;83.69;98845.22;4959038;28;19940;-82
2024/01/17 04:37:31;;;;;;;;;;;;;;;-5.34;82.85;98842.56;4960041;28;19942;-83
2024/01/17 04:39:58;;;;;;;;;;;;;;;-5.26;83.02;98825.72;4968522;28;20021;-83
2024/01/17 04:42:25;;;;;;;;;;;;;;;-5.30;83.36;98823.03;4969390;28;19926;-86
2024/01/17 04:44:52;;;;;;;;;;;;;;;-5.30;83.05;98805.13;4973435;28;19934;-87
2024/01/17 04:47:19;;;;;;;;;;;;;;;-5.31;83.18;98804.28;4970241;28;19936;-84
2024/01/17 04:49:46;;;;;;;;;;;;;;;-5.30;82.84;98797.47;4967111;28;19932;-87
2024/01/17 04:52:16;;;;;;;;;;;;;;;-5.29;82.82;98794.94;4967345;28;19937;-84
2024/01/17 04:54:43;;;;;;;;;;;;;;;-5.30;82.50;98788.13;4970038;28;19926;-86
2024/01/17 04:57:09;;;;;;;;;;;;;;;-5.29;82.52;98784.72;4969965;28;20024;-84
2024/01/17 04:59:37;;;;;;;;;;;;;;;-5.28;82.25;98786.44;4974318;28;19934;-84
2024/01/17 05:02:03;;;;;;;;;;;;;;;-5.21;82.48;98771.22;4976057;28;20439;-83
2024/01/17 05:04:30;;;;;;;;;;;;;;;-5.19;82.56;98770.44;4970916;28;19933;-83
2024/01/17 05:06:57;;;;;;;;;;;;;;;-5.24;82.25;98770.34;4972534;28;19961;-85
2024/01/17 05:09:24;;;;;;;;;;;;;;;-5.20;82.26;98755.06;4969036;28;19930;-82
2024/01/17 05:11:50;;;;;;;;;;;;;;;-5.17;82.73;98742.31;4972401;28;20106;-83
2024/01/17 05:14:17;;;;;;;;;;;;;;;-5.20;82.61;98729.47;4954119;28;19926;-84
2024/01/17 05:16:44;;;;;;;;;;;;;;;-5.20;82.95;98734.59;4955888;28;19933;-84
2024/01/17 05:19:10;;;;;;;;;;;;;;;-5.25;83.03;98730.25;4972044;28;19996;-84
2024/01/17 05:21:42;;;;;;;;;;;;;;;-5.25;83.06;98735.34;4971203;28;19945;-82
2024/01/17 05:24:09;;;;;;;;;;;;;;;-5.20;83.50;98732.88;4972107;28;19933;-86
2024/01/17 05:26:36;;;;;;;;;;;;;;;-5.19;83.97;98728.66;4969148;28;20032;-82
2024/01/17 05:29:03;;;;;;;;;;;;;;;-5.21;83.99;98714.94;4970990;28;20283;-82
2024/01/17 05:31:29;;;;;;;;;;;;;;;-5.13;84.76;98718.53;4971039;28;19926;-87
2024/01/17 05:33:56;;;;;;;;;;;;;;;-5.13;84.89;98714.28;4970233;28;20370;-82
2024/01/17 05:36:23;;;;;;;;;;;;;;;-5.13;85.25;98706.59;4953749;28;19958;-82
2024/01/17 05:38:50;;;;;;;;;;;;;;;-5.16;84.92;98705.69;4964316;28;19926;-83
2024/01/17 05:41:16;;;;;;;;;;;;;;;-5.16;85.31;98698.00;4950515;28;19926;-83
2024/01/17 05:43:43;;;;;;;;;;;;;;;-5.14;85.34;98691.22;4971805;28;19934;-84
2024/01/17 05:46:09;;;;;;;;;;;;;;;-5.15;85.34;98690.38;4971614;28;19926;-84
2024/01/17 05:48:36;;;;;;;;;;;;;;;-5.15;85.32;98674.16;4950933;28;19926;-85
2024/01/17 05:51:04;;;;;;;;;;;;;;;-5.12;85.16;98680.19;4966686;28;19930;-81
2024/01/17 05:53:30;;;;;;;;;;;;;;;-5.17;85.46;98671.59;4968580;28;19933;-81
2024/01/17 05:55:57;;;;;;;;;;;;;;;-5.12;85.58;98669.97;4971662;28;19934;-86
2024/01/17 05:58:27;;;;;;;;;;;;;;;-5.15;85.70;98663.94;4970819;28;19926;-82
2024/01/17 06:00:54;;;;;;;;;;;;;;;-5.11;85.49;98660.63;4974714;28;19930;-81
2024/01/17 06:03:21;;;;;;;;;;;;;;;-5.09;85.48;98653.81;4969045;28;20017;-81
2024/01/17 06:05:48;;;;;;;;;;;;;;;-5.06;85.80;98648.75;4973495;28;19934;-82
2024/01/17 06:08:15;;;;;;;;;;;;;;;-5.16;85.64;98642.59;4974633;28;20026;-82
2024/01/17 06:10:42;;;;;;;;;;;;;;;-5.07;85.88;98636.78;4972531;28;19930;-85
2024/01/17 06:13:08;;;;;;;;;;;;;;;-5.06;85.63;98623.16;4968639;28;19926;-82
2024/01/17 06:15:35;;;;;;;;;;;;;;;-4.93;86.03;98629.38;4969841;28;19926;-81
2024/01/17 06:18:01;;;;;;;;;;;;;;;-5.00;85.95;98619.88;4978844;28;20309;-82
2024/01/17 06:20:28;;;;;;;;;;;;;;;-4.91;86.04;98610.66;4956162;28;19969;-84
2024/01/17 06:22:55;;;;;;;;;;;;;;;-4.93;85.44;98599.53;4971924;28;19927;-82
2024/01/17 06:25:21;;;;;;;;;;;;;;;-4.93;85.78;98599.53;4975661;28;19962;-81
2024/01/17 06:27:48;;;;;;;;;;;;;;;-4.94;85.83;98592.69;4970618;28;20020;-82
2024/01/17 06:30:15;;;;;;;;;;;;;;;-4.80;85.97;98589.50;4973520;28;19933;-81
2024/01/17 06:32:42;;;;;;;;;;;;;;;-4.86;86.02;98577.47;4978943;28;19973;-81
2024/01/17 06:35:10;;;;;;;;;;;;;;;-4.74;86.29;98574.25;4960197;28;19956;-83
2024/01/17 06:37:37;;;;;;;;;;;;;;;-4.84;86.40;98564.69;4982046;28;19926;-84
2024/01/17 06:40:04;;;;;;;;;;;;;;;-4.77;86.67;98566.53;4986818;28;19936;-83
2024/01/17 06:42:30;;;;;;;;;;;;;;;-4.76;86.14;98566.53;4975067;28;19934;-87
2024/01/17 06:44:57;;;;;;;;;;;;;;;-4.66;86.46;98557.31;4967144;28;19957;-81
2024/01/17 06:47:24;;;;;;;;;;;;;;;-4.69;86.20;98557.28;4959102;28;19968;-81
2024/01/17 06:49:53;;;;;;;;;;;;;;;-4.74;86.09;98543.53;4950780;28;19926;-81
2024/01/17 06:52:19;;;;;;;;;;;;;;;-4.70;85.91;98540.19;4952924;28;19933;-81
2024/01/17 06:54:46;;;;;;;;;;;;;;;-4.59;86.05;98541.22;4957962;28;19970;-82
2024/01/17 06:57:13;;;;;;;;;;;;;;;-4.52;86.10;98533.63;4941631;28;20019;-80
2024/01/17 06:59:41;;;;;;;;;;;;;;;-4.51;85.76;98530.22;4962880;28;19927;-80
2024/01/17 07:02:08;;;;;;;;;;;;;;;-4.58;86.19;98524.16;4975321;28;19925;-85
2024/01/17 07:04:35;;;;;;;;;;;;;;;-4.52;86.66;98524.22;4965204;28;19932;-82
2024/01/17 07:07:02;;;;;;;;;;;;;;;-4.55;86.57;98524.19;4971138;28;19926;-80
2024/01/17 07:09:28;;;;;;;;;;;;;;;-4.58;86.31;98516.47;4972642;28;19933;-80
2024/01/17 07:11:55;;;;;;;;;;;;;;;-4.61;86.28;98514.72;4954184;28;19938;-81
2024/01/17 07:14:23;;;;;;;;;;;;;;;-4.60;86.21;98513.88;4971736;28;19992;-81
2024/01/17 07:16:50;;;;;;;;;;;;;;;-4.41;86.73;98509.03;4970843;28;19989;-84
2024/01/17 07:19:16;;;;;;;;;;;;;;;-4.41;85.87;98501.34;4971171;28;19926;-81
2024/01/17 07:21:43;;;;;;;;;;;;;;;-4.39;86.92;98497.09;4977211;28;19953;-83
2024/01/17 07:24:10;;;;;;;;;;;;;;;-4.30;86.55;98489.56;4980373;28;19925;-81
2024/01/17 07:26:37;;;;;;;;;;;;;;;-4.04;86.45;98486.44;4972747;28;19938;-81
2024/01/17 07:29:05;;;;;;;;;;;;;;;-4.24;86.17;98484.50;4967274;28;19940;-82
2024/01/17 07:31:31;;;;;;;;;;;;;;;-4.21;86.63;98481.13;4990199;28;19952;-81
2024/01/17 07:33:58;;;;;;;;;;;;;;;-4.26;86.76;98486.22;4978231;28;19927;-81
2024/01/17 07:36:25;;;;;;;;;;;;;;;-4.16;87.25;98471.78;4974637;28;19962;-83
2024/01/17 07:38:52;;;;;;;;;;;;;;;-4.25;86.65;98459.72;4972073;28;19937;-81
2024/01/17 07:41:18;;;;;;;;;;;;;;;-4.25;86.65;98456.31;4973878;28;19926;-80
2024/01/17 07:43:46;;;;;;;;;;;;;;;-4.29;86.76;98450.28;4982528;28;19929;-83
2024/01/17 07:46:13;;;;;;;;;;;;;;;-4.23;86.93;98449.50;4977358;28;20404;-81
2024/01/17 07:48:39;;;;;;;;;;;;;;;-4.30;87.05;98440.00;4972561;28;19932;-81
2024/01/17 07:51:10;;;;;;;;;;;;;;;-4.24;87.72;98432.44;4972358;28;19976;-81
2024/01/17 07:53:38;;;;;;;;;;;;;;;-4.16;87.72;98427.38;4974712;28;19989;-82
2024/01/17 07:56:05;;;;;;;;;;;;;;;-4.16;87.74;98427.38;4972925;28;19934;-80
2024/01/17 07:58:31;;;;;;;;;;;;;;;-4.18;88.11;98422.25;4976553;28;19926;-79
2024/01/17 08:00:58;;;;;;;;;;;;;;;-4.12;88.22;98419.75;4971350;28;19926;-81
2024/01/17 08:03:25;;;;;;;;;;;;;;;-4.05;88.31;98421.53;4959352;28;19934;-81
2024/01/17 08:05:56;;;;;;;;;;;;;;;-4.01;88.55;98419.88;4967771;28;20436;-81
2024/01/17 08:08:22;;;;;;;;;;;;;;;-3.95;88.69;98409.69;4948583;28;19971;-81
2024/01/17 08:10:49;;;;;;;;;;;;;;;-3.90;88.85;98408.03;4962593;28;19961;-81
2024/01/17 08:13:17;;;;;;;;;;;;;;;-3.85;89.07;98401.25;4972022;28;19926;-81
2024/01/17 08:15:43;;;;;;;;;;;;;;;-3.87;88.81;98391.81;4974046;28;20046;-82
2024/01/17 08:18:10;;;;;;;;;;;;;;;-3.79;88.98;98394.47;4971629;28;19926;-83
2024/01/17 08:20:38;;;;;;;;;;;;;;;-3.75;88.70;98391.06;4961261;28;20025;-83
2024/01/17 08:23:05;;;;;;;;;;;;;;;-3.69;88.83;98392.00;4971413;28;20005;-81
2024/01/17 08:25:32;;;;;;;;;;;;;;;-3.65;89.04;98386.91;4972697;28;19932;-82
2024/01/17 08:27:59;;;;;;;;;;;;;;;-3.62;89.02;98376.66;4961579;28;19927;-83
2024/01/17 08:30:29;;;;;;;;;;;;;;;-3.60;89.08;98368.16;4972313;28;19926;-82
2024/01/17 08:32:56;;;;;;;;;;;;;;;-3.54;89.11;98365.63;4972965;28;19988;-82
2024/01/17 08:35:22;;;;;;;;;;;;;;;-3.43;88.72;98363.16;4971966;28;19925;-83
2024/01/17 08:37:49;;;;;;;;;;;;;;;-3.54;88.55;98355.38;4970164;28;19926;-83
2024/01/17 08:40:16;;;;;;;;;;;;;;;-3.53;88.88;98353.69;4970642;28;19926;-81
2024/01/17 08:42:45;;;;;;;;;;;;;;;-3.50;88.71;98346.84;4970048;28;19926;-81
2024/01/17 08:45:12;;;;;;;;;;;;;;;-3.52;88.53;98335.75;4938930;28;19926;-81
2024/01/17 08:47:42;;;;;;;;;;;;;;;-3.44;88.52;98329.81;4969938;28;20407;-81
2024/01/17 08:50:09;;;;;;;;;;;;;;;-3.40;88.56;98323.88;4973819;28;20028;-81
2024/01/17 08:52:36;;;;;;;;;;;;;;;-3.40;88.30;98317.00;4973355;28;19932;-81
2024/01/17 08:55:05;;;;;;;;;;;;;;;-3.39;88.71;98312.72;4980335;28;20265;-81
2024/01/17 08:57:32;;;;;;;;;;;;;;;-3.29;88.82;98303.41;4972587;28;19970;-83
2024/01/17 08:59:59;;;;;;;;;;;;;;;-3.36;89.08;98303.38;4968917;28;19926;-82
2024/01/17 09:02:26;;;;;;;;;;;;;;;-3.34;88.87;98295.69;4976675;28;19955;-83
2024/01/17 09:04:53;;;;;;;;;;;;;;;-3.31;88.88;98285.44;4970577;28;19926;-82
2024/01/17 09:07:19;;;;;;;;;;;;;;;-3.22;89.02;98280.34;4971678;28;19933;-81
2024/01/17 09:09:50;;;;;;;;;;;;;;;-3.25;88.79;98276.91;4969118;28;19936;-82
2024/01/17 09:12:19;;;;;;;;;;;;;;;-3.31;88.75;98275.16;4977371;28;19926;-82
2024/01/17 09:14:46;;;;;;;;;;;;;;;-3.24;88.81;98266.66;4969022;28;19934;-84
2024/01/17 09:17:13;;;;;;;;;;;;;;;-3.21;88.84;98271.81;4954858;28;19930;-83
2024/01/17 09:19:39;;;;;;;;;;;;;;;-3.20;89.00;98258.13;4969762;28;20001;-83
2024/01/17 09:22:07;;;;;;;;;;;;;;;-3.18;88.97;98256.44;4970031;28;19938;-82
2024/01/17 09:24:33;;;;;;;;;;;;;;;-3.19;88.59;98256.41;4970379;28;19926;-82
2024/01/17 09:27:00;;;;;;;;;;;;;;;-2.95;89.31;98247.97;4969673;28;19930;-82
2024/01/17 09:29:29;;;;;;;;;;;;;;;-3.00;88.81;98239.41;4973269;28;19930;-82
2024/01/17 09:31:56;;;;;;;;;;;;;;;-3.03;88.95;98229.13;4960038;28;20356;-82
2024/01/17 09:34:23;;;;;;;;;;;;;;;-3.04;88.78;98224.81;4954713;28;19952;-84
2024/01/17 09:36:50;;;;;;;;;;;;;;;-3.02;88.81;98228.28;4922055;28;20306;-85
2024/01/17 09:39:16;;;;;;;;;;;;;;;-3.02;88.60;98223.16;4977750;28;19962;-85
2024/01/17 09:41:44;;;;;;;;;;;;;;;-3.01;88.52;98222.31;4971853;28;20306;-82
2024/01/17 09:44:11;;;;;;;;;;;;;;;-2.94;88.62;98216.34;4973336;28;19936;-82
2024/01/17 09:46:38;;;;;;;;;;;;;;;-3.00;88.75;98216.28;4952495;28;19926;-82
2024/01/17 09:49:05;;;;;;;;;;;;;;;-2.94;88.87;98218.91;4959461;28;19945;-83
2024/01/17 09:51:32;;;;;;;;;;;;;;;-2.90;89.21;98215.47;4951093;28;19926;-82
2024/01/17 09:54:02;;;;;;;;;;;;;;;-2.86;89.13;98191.53;4974779;28;19974;-82
2024/01/17 09:56:29;;;;;;;;;;;;;;;-2.90;89.33;98197.50;4938612;28;20383;-83
2024/01/17 09:58:57;;;;;;;;;;;;;;;-2.85;89.53;98187.28;4939860;28;19981;-82
2024/01/17 10:01:24;;;;;;;;;;;;;;;-2.92;89.39;98188.97;4951807;28;19999;-82
2024/01/17 10:03:51;;;;;;;;;;;;;;;-2.84;89.41;98184.72;4951409;28;19933;-82
2024/01/17 10:06:18;;;;;;;;;;;;;;;-2.86;89.59;98175.28;4951886;28;20009;-82
2024/01/17 10:08:46;;;;;;;;;;;;;;;-2.82;89.53;98171.88;4950934;28;19926;-82
2024/01/17 10:11:13;;;;;;;;;;;;;;;-2.75;89.73;98162.47;4967983;28;19990;-83
2024/01/17 10:13:40;;;;;;;;;;;;;;;-2.64;89.91;98150.50;4972508;28;19926;-81
2024/01/17 10:16:08;;;;;;;;;;;;;;;-2.63;89.81;98137.66;4974049;28;19961;-82
2024/01/17 10:18:35;;;;;;;;;;;;;;;-2.65;89.87;98126.53;4972415;28;19981;-83
2024/01/17 10:21:03;;;;;;;;;;;;;;;-2.65;89.84;98129.09;4950914;28;20008;-82
2024/01/17 10:23:30;;;;;;;;;;;;;;;-2.63;89.95;98121.41;4955404;28;19930;-82
2024/01/17 10:25:57;;;;;;;;;;;;;;;-2.62;90.04;98120.56;4958321;28;19980;-82
2024/01/17 10:28:23;;;;;;;;;;;;;;;-2.68;90.06;98107.69;4952052;28;19965;-84
2024/01/17 10:30:50;;;;;;;;;;;;;;;-2.57;90.08;98098.28;4973079;28;19980;-82
2024/01/17 10:33:17;;;;;;;;;;;;;;;-2.56;89.98;98087.16;4971173;28;19936;-82
2024/01/17 10:35:44;;;;;;;;;;;;;;;-2.58;89.99;98088.84;4954252;28;20349;-82
2024/01/17 10:38:10;;;;;;;;;;;;;;;-2.51;90.13;98084.59;4949131;28;19938;-81
2024/01/17 10:40:42;;;;;;;;;;;;;;;-2.47;90.15;98089.72;4948253;28;19949;-82
2024/01/17 10:43:10;;;;;;;;;;;;;;;-2.55;90.03;98078.63;4953403;28;19926;-84
2024/01/17 10:45:37;;;;;;;;;;;;;;;-2.46;90.32;98078.59;4967723;28;19926;-85
2024/01/17 10:48:05;;;;;;;;;;;;;;;-2.35;90.57;98067.44;4968539;28;20317;-85
2024/01/17 10:50:32;;;;;;;;;;;;;;;-2.45;90.36;98054.63;4962659;28;19929;-87
2024/01/17 10:53:04;;;;;;;;;;;;;;;-2.34;90.59;98053.75;4947483;28;19926;-85
2024/01/17 10:55:35;;;;;;;;;;;;;;;-2.36;90.58;98051.19;4959981;28;19935;-84
2024/01/17 10:58:09;;;;;;;;;;;;;;;-2.31;90.71;98046.03;4949864;28;20411;-87
2024/01/17 11:00:40;;;;;;;;;;;;;;;-2.37;90.71;98035.78;4974234;28;20016;-84
2024/01/17 11:03:09;;;;;;;;;;;;;;;-2.34;90.77;98036.63;4953269;28;20491;-85
2024/01/17 11:05:54;;;;;;;;;;;;;;;-2.34;90.68;98036.63;4968652;28;19941;-87
2024/01/17 11:08:21;;;;;;;;;;;;;;;-2.37;90.73;98025.50;4955649;28;19934;-85
2024/01/17 11:10:48;;;;;;;;;;;;;;;-2.32;90.84;98019.50;4956783;28;19935;-85
2024/01/17 11:13:15;;;;;;;;;;;;;;;-2.35;90.58;98009.22;4940385;28;19925;-87
2024/01/17 11:15:42;;;;;;;;;;;;;;;-2.27;91.12;98011.78;4953535;28;19926;-84
2024/01/17 11:18:10;;;;;;;;;;;;;;;-2.19;91.24;97994.59;4945783;28;20001;-87
2024/01/17 11:20:38;;;;;;;;;;;;;;;-2.28;91.27;97984.38;4974085;28;20002;-84
2024/01/17 11:23:17;;;;;;;;;;;;;;;-2.26;91.17;97969.78;4973745;28;19930;-87
2024/01/17 11:25:49;;;;;;;;;;;;;;;-2.25;91.28;97979.22;4947689;28;19945;-85
2024/01/17 11:28:26;;;;;;;;;;;;;;;-2.20;91.34;97980.06;4948448;28;19926;-86
2024/01/17 11:31:12;;;;;;;;;;;;;;;-2.17;91.36;97966.34;4947783;28;19936;-84
2024/01/17 11:33:39;;;;;;;;;;;;;;;-2.17;91.64;97959.50;4950088;28;19930;-83
2024/01/17 11:36:06;;;;;;;;;;;;;;;-2.17;91.53;97962.06;4953948;28;19927;-84
2024/01/17 11:38:33;;;;;;;;;;;;;;;-2.18;91.61;97957.78;4935106;28;19930;-84
2024/01/17 11:41:06;;;;;;;;;;;;;;;-2.15;91.67;97944.91;4967014;28;19945;-84
2024/01/17 11:43:36;;;;;;;;;;;;;;;-2.14;91.77;97938.91;4966899;28;19927;-84
2024/01/17 11:46:12;;;;;;;;;;;;;;;-2.07;91.72;97931.19;4945942;28;19925;-83
2024/01/17 11:48:39;;;;;;;;;;;;;;;-2.07;91.71;97923.47;4947787;28;19934;-89
2024/01/17 11:51:08;;;;;;;;;;;;;;;-2.08;91.73;97924.34;4961071;28;19930;-89
2024/01/17 11:53:35;;;;;;;;;;;;;;;-2.05;91.79;97916.63;4966472;28;19926;-86
2024/01/17 11:56:03;;;;;;;;;;;;;;;-2.04;91.86;97910.59;4968814;28;19930;-86
2024/01/17 11:58:39;;;;;;;;;;;;;;;-2.03;91.98;97912.31;4949094;28;19926;-88
2024/01/17 12:01:06;;;;;;;;;;;;;;;-2.04;92.13;97884.91;4962594;28;19926;-84
2024/01/17 12:03:33;;;;;;;;;;;;;;;-1.97;92.19;97890.00;4958037;28;19926;-85
2024/01/17 12:06:01;;;;;;;;;;;;;;;-1.94;92.18;97886.56;4946916;28;19937;-85
2024/01/17 12:08:28;;;;;;;;;;;;;;;-1.88;92.14;97880.53;4967759;28;19969;-83
2024/01/17 12:10:55;;;;;;;;;;;;;;;-1.87;92.41;97877.94;4976176;28;19925;-84
2024/01/17 12:13:23;;;;;;;;;;;;;;;-1.88;92.30;97870.25;4971160;28;19933;-83
2024/01/17 12:15:54;;;;;;;;;;;;;;;-1.86;92.27;97869.38;4952329;28;19926;-86
2024/01/17 12:18:22;;;;;;;;;;;;;;;-1.80;92.46;97864.19;4950224;28;19934;-84
2024/01/17 12:20:49;;;;;;;;;;;;;;;-1.78;92.26;97857.31;4963706;28;19941;-84
2024/01/17 12:23:19;;;;;;;;;;;;;;;-1.77;92.29;97848.75;4968884;28;19989;-84
2024/01/17 12:25:46;;;;;;;;;;;;;;;-1.75;92.32;97839.31;4946811;28;19926;-81
2024/01/17 12:28:16;;;;;;;;;;;;;;;-1.72;92.38;97824.69;4966911;28;19933;-81
2024/01/17 12:30:53;;;;;;;;;;;;;;;-1.70;92.43;97812.72;4936448;28;20068;-87
2024/01/17 12:33:20;;;;;;;;;;;;;;;-1.68;92.65;97798.09;4946596;28;19932;-83
2024/01/17 12:35:52;;;;;;;;;;;;;;;-1.68;92.52;97790.38;4957909;28;19930;-84
2024/01/17 12:38:19;;;;;;;;;;;;;;;-1.65;92.58;97772.34;4965924;28;19926;-82
2024/01/17 12:40:46;;;;;;;;;;;;;;;-1.67;92.39;97780.09;4939712;28;19937;-83
2024/01/17 12:43:13;;;;;;;;;;;;;;;-1.61;92.57;97763.75;4969808;28;19941;-84
2024/01/17 12:45:40;;;;;;;;;;;;;;;-1.70;92.35;97772.41;4948638;28;19940;-83
2024/01/17 12:48:08;;;;;;;;;;;;;;;-1.73;92.21;97767.28;4951840;28;19932;-83